Detall de PIREP

Printer-friendly versionPDF version

[2014/11/02 10:31:00]
Flight IATA:CT3216
Pilot Number:012
Company ICAO:CAT
Aircraft Type:B744/E
PAX:330
Departing Airport: LEPA
Destination Airport: EIDW
Alternate Airport:EGCC
Online: VATSIM
Route:DRAGO UN863 TIRAV UT183 DEGEX UN490 TERKU UN864 EXMOR UM17 VATRY
Flight Level:F400
No Slew and time accel
No pause
Crash detect
Detect pilot in Cockpit between each 30 and 45 minutes
10:31 Zero fuel Weight: 461420 Lbs, Fuel Weight: 73752 Lbs
10:31 VATSIM:LEPA 021000Z 23004KT 160V280 9999 FEW018 22/16 Q1022 NOSIG
10:31 VATSIM:EIDW 021000Z 23013KT 9999 FEW020 10/05 Q1000 NOSIG
10:32 Parking Brakes off
10:36 Take-off
10:36 Take off Weight: 533623 Lbs
10:36 Wind: 218º @ 004 Knots Heading: 238º
10:36 POS N39º 33´ 20´´ E002º 43´ 42´´
10:37 Gear Up: 177 Knots
10:37 Flaps:3 at 177 Knots
10:37 Flaps:2 at 208 Knots
10:37 Flaps:1 at 214 Knots
10:38 Flaps:0 at 253 Knots
10:52 Wind:210º@035 Knots Heading: 335º Ground Speed: 500 Knots Altitude 39730 ft
10:52 TOC
10:52 Fuel Weight: 60895 Lb
11:07 Wind:237º@021 Knots Heading: 353º Ground Speed: 490 Knots Altitude 40144 ft
11:22 Wind:232º@029 Knots Heading: 331º Ground Speed: 488 Knots Altitude 40121 ft
11:37 Wind:239º@031 Knots Heading: 317º Ground Speed: 478 Knots Altitude 40052 ft
11:52 Wind:220º@057 Knots Heading: 306º Ground Speed: 486 Knots Altitude 39917 ft
12:07 Wind:219º@054 Knots Heading: 358º Ground Speed: 529 Knots Altitude 39783 ft
12:22 Wind:223º@050 Knots Heading: 301º Ground Speed: 484 Knots Altitude 39698 ft
12:23 TOD
12:23 Fuel Weight: 32577 Lb
12:34 Flaps:1 at 286 Knots
12:34 Flaps:0 at 285 Knots
12:34 Flaps:1 at 285 Knots
12:34 Flaps:0 at 284 Knots
12:35 Flaps:1 at 247 Knots
12:35 Flaps:2 at 234 Knots
12:37 Wind:239º@028 Knots Heading: 050º Ground Speed: 271 Knots Altitude 6656 ft
12:37 Flaps:3 at 221 Knots
12:39 Flaps:4 at 213 Knots
12:39 Gear Down: 210 Knots
12:42 Flaps:5 at 191 Knots
12:43 Flaps:6 at 160 Knots
12:46 TouchDown:Rate -196 ft/min Speed: 131 Knots
12:46 VATSIM:EIDW 021230Z 23014KT 200V260 9999 SCT023 SCT030 11/06 Q0998 NOSIG
12:46 Land
12:46 Wind:233º@014 Knots
12:46 Heading: 277º
12:46 Flight Duration: 02:09
12:46 Landing Weight: 488676 Lbs
12:46 POS N53º 25´ 16´´ W006º 16´ 08´´
12:52 Parking brakes on
12:52 Block to Block Duration: 02:20
12:52 Final Fuel: 26221 Lbls
12:52 Spent Fuel: 47530 Lbls
12:52 Flight Length: 984 NM
12:52 TOD Land Length: 122 NM

Exportar CSV

Powered by Drupal - Modified by Danger4k